createdAt,value
2017-01-23T00:00:07.776Z,69.58
2017-01-23T00:01:08.321Z,68.38
2017-01-23T00:02:07.870Z,68.63
2017-01-23T00:03:08.476Z,67.76
2017-01-23T00:04:08.019Z,68.03
2017-01-23T00:05:07.703Z,68.69
2017-01-23T00:06:08.414Z,68.54
2017-01-23T00:07:08.068Z,68.43
2017-01-23T00:08:07.770Z,69.13
2017-01-23T00:09:08.418Z,68.98
2017-01-23T00:10:08.051Z,68.54
2017-01-23T00:11:07.792Z,68.64
2017-01-23T00:12:08.360Z,68.76
2017-01-23T00:13:07.893Z,68.20
2017-01-23T00:14:08.352Z,68.01
2017-01-23T00:15:07.930Z,68.95
2017-01-23T00:16:08.481Z,69.33
2017-01-23T00:17:08.101Z,67.91
2017-01-23T00:18:07.630Z,68.20
2017-01-23T00:19:08.244Z,68.24
2017-01-23T00:20:07.913Z,69.20
2017-01-23T00:21:08.470Z,69.31
2017-01-23T00:22:08.121Z,69.55
2017-01-23T00:23:07.722Z,69.28
2017-01-23T00:24:08.319Z,68.68
2017-01-23T00:25:07.817Z,68.63
2017-01-23T00:26:08.418Z,68.09
2017-01-23T00:27:07.998Z,67.92
2017-01-23T00:28:07.649Z,68.47
2017-01-23T00:29:08.349Z,67.84
2017-01-23T00:30:07.996Z,66.83
2017-01-23T00:31:07.518Z,66.56
2017-01-23T00:32:08.000Z,67.22
2017-01-23T00:33:07.569Z,67.30
2017-01-23T00:34:08.197Z,67.77
2017-01-23T00:35:07.815Z,67.47
2017-01-23T00:36:08.411Z,67.79
2017-01-23T00:37:08.003Z,67.90
2017-01-23T00:38:07.507Z,67.31
2017-01-23T00:39:08.201Z,67.42
2017-01-23T00:40:07.900Z,67.66
2017-01-23T00:41:08.534Z,67.55
2017-01-23T00:42:07.962Z,68.34
2017-01-23T00:43:07.691Z,67.56
2017-01-23T00:44:08.268Z,68.44
2017-01-23T00:45:07.792Z,68.77
2017-01-23T00:46:08.310Z,68.44
2017-01-23T00:47:07.861Z,68.67
2017-01-23T00:48:08.434Z,67.50
2017-01-23T00:49:08.247Z,67.15
2017-01-23T00:50:07.775Z,67.37
2017-01-23T00:51:08.330Z,67.65
2017-01-23T00:52:07.879Z,67.81
2017-01-23T00:53:08.408Z,67.50
2017-01-23T00:54:08.056Z,67.78
2017-01-23T00:55:07.552Z,67.00
2017-01-23T00:56:08.137Z,67.13
2017-01-23T00:57:07.669Z,67.45
2017-01-23T00:58:08.135Z,68.10
2017-01-23T00:59:07.848Z,68.07
2017-01-23T01:00:08.314Z,68.40
2017-01-23T01:01:07.755Z,67.44
2017-01-23T01:02:07.853Z,67.36
2017-01-23T01:03:07.696Z,67.01
2017-01-23T01:04:08.407Z,67.15
2017-01-23T01:05:08.322Z,67.06
2017-01-23T01:06:07.426Z,66.48
2017-01-23T01:07:08.066Z,67.03
2017-01-23T01:08:07.556Z,66.71
2017-01-23T01:09:08.223Z,67.17
2017-01-23T01:10:08.019Z,66.96
2017-01-23T01:11:07.601Z,66.87
2017-01-23T01:12:08.170Z,66.57
2017-01-23T01:13:07.463Z,66.53
2017-01-23T01:14:08.036Z,66.59
2017-01-23T01:15:07.808Z,67.19
2017-01-23T01:16:08.381Z,67.88
2017-01-23T01:17:08.143Z,66.80
2017-01-23T01:18:07.724Z,67.06
2017-01-23T01:19:08.254Z,67.44
2017-01-23T01:20:08.496Z,68.46
2017-01-23T01:21:08.144Z,68.64
2017-01-23T01:22:07.816Z,68.35
2017-01-23T01:23:08.423Z,67.62
2017-01-23T01:24:08.066Z,67.78
2017-01-23T01:25:07.671Z,67.03
2017-01-23T01:26:07.525Z,66.98
2017-01-23T01:27:07.976Z,67.52
2017-01-23T01:28:08.451Z,67.06
2017-01-23T01:29:07.946Z,66.55
2017-01-23T01:30:08.026Z,66.85
2017-01-23T01:31:07.663Z,67.12
2017-01-23T01:32:08.194Z,66.92
2017-01-23T01:33:07.889Z,66.87
2017-01-23T01:34:08.552Z,67.42
2017-01-23T01:35:08.267Z,65.99
2017-01-23T01:36:07.877Z,66.30
2017-01-23T01:37:08.373Z,66.48
2017-01-23T01:38:07.801Z,66.81
2017-01-23T01:39:08.306Z,67.43
2017-01-23T01:40:07.598Z,65.55
2017-01-23T01:41:07.922Z,66.09
2017-01-23T01:42:08.453Z,66.40
2017-01-23T01:43:08.713Z,66.68
2017-01-23T01:44:08.389Z,66.56
2017-01-23T01:45:07.900Z,65.84
2017-01-23T01:46:08.320Z,66.83
2017-01-23T01:47:08.507Z,66.36
2017-01-23T01:48:08.018Z,66.95
2017-01-23T01:49:07.453Z,66.94
2017-01-23T01:50:08.037Z,66.29
2017-01-23T01:51:07.502Z,66.62
2017-01-23T01:52:08.157Z,67.13
2017-01-23T01:53:07.603Z,67.25
2017-01-23T01:54:07.776Z,66.95
2017-01-23T01:55:08.327Z,67.03
2017-01-23T01:56:07.892Z,68.34
2017-01-23T01:57:08.462Z,67.99
2017-01-23T01:58:07.988Z,67.20
2017-01-23T01:59:07.439Z,66.25
2017-01-23T02:00:08.048Z,66.55
2017-01-23T02:01:07.661Z,66.31
2017-01-23T02:02:08.207Z,66.98
2017-01-23T02:03:07.661Z,67.85
2017-01-23T02:04:08.230Z,67.59
2017-01-23T02:05:07.943Z,67.87
2017-01-23T02:06:07.601Z,67.00
2017-01-23T02:07:08.222Z,67.16
2017-01-23T02:08:07.811Z,67.76
2017-01-23T02:09:08.473Z,67.94
2017-01-23T02:10:07.990Z,67.62
2017-01-23T02:11:07.639Z,66.55
2017-01-23T02:12:08.425Z,66.27
2017-01-23T02:13:08.033Z,66.83
2017-01-23T02:14:08.247Z,67.04
2017-01-23T02:15:08.352Z,67.44
2017-01-23T02:16:08.029Z,66.31
2017-01-23T02:17:07.792Z,66.66
2017-01-23T02:18:08.225Z,66.61
2017-01-23T02:19:07.562Z,65.91
2017-01-23T02:20:07.880Z,65.89
2017-01-23T02:21:08.462Z,65.91
2017-01-23T02:22:07.962Z,66.66
2017-01-23T02:23:07.749Z,67.71
2017-01-23T02:24:08.454Z,66.80
2017-01-23T02:25:08.071Z,66.06
2017-01-23T02:26:07.677Z,66.33
2017-01-23T02:27:08.453Z,66.02
2017-01-23T02:28:08.160Z,65.82
2017-01-23T02:29:07.625Z,65.02
2017-01-23T02:30:08.164Z,65.75
2017-01-23T02:31:07.619Z,66.57
2017-01-23T02:32:07.507Z,66.52
2017-01-23T02:33:07.967Z,66.18
2017-01-23T02:34:07.525Z,65.86
2017-01-23T02:35:08.239Z,66.49
2017-01-23T02:36:07.994Z,66.82
2017-01-23T02:37:07.667Z,66.15
2017-01-23T02:38:08.346Z,66.36
2017-01-23T02:39:08.146Z,66.22
2017-01-23T02:40:07.693Z,65.97
2017-01-23T02:41:08.230Z,65.93
2017-01-23T02:42:07.800Z,66.30
2017-01-23T02:43:08.293Z,66.34
2017-01-23T02:44:08.038Z,65.90
2017-01-23T02:45:07.776Z,66.43
2017-01-23T02:46:08.405Z,66.07
2017-01-23T02:47:07.900Z,66.22
2017-01-23T02:48:08.484Z,67.00
2017-01-23T02:49:08.070Z,67.19
2017-01-23T02:50:07.654Z,66.10
2017-01-23T02:51:08.279Z,65.47
2017-01-23T02:52:07.805Z,64.93
2017-01-23T02:53:08.356Z,64.99
2017-01-23T02:54:07.860Z,65.25
2017-01-23T02:55:08.475Z,65.09
2017-01-23T02:56:08.011Z,65.13
2017-01-23T02:57:07.702Z,66.18
2017-01-23T02:58:08.469Z,65.64
2017-01-23T02:59:08.113Z,66.41
2017-01-23T03:00:07.694Z,66.01
2017-01-23T03:01:08.248Z,66.07
2017-01-23T03:02:07.910Z,66.52
2017-01-23T03:03:08.524Z,67.45
2017-01-23T03:04:08.051Z,67.38
2017-01-23T03:05:07.553Z,68.06
2017-01-23T03:06:08.180Z,67.06
2017-01-23T03:07:07.743Z,67.83
2017-01-23T03:08:08.324Z,68.05
2017-01-23T03:09:07.985Z,67.29
2017-01-23T03:10:07.682Z,67.39
2017-01-23T03:11:08.345Z,66.71
2017-01-23T03:12:08.084Z,65.88
2017-01-23T03:13:07.666Z,65.98
2017-01-23T03:14:08.244Z,65.85
2017-01-23T03:15:07.912Z,65.97
2017-01-23T03:16:08.609Z,66.31
2017-01-23T03:17:08.377Z,66.63
2017-01-23T03:18:07.934Z,66.91
2017-01-23T03:19:07.573Z,67.46
2017-01-23T03:20:08.244Z,67.18
2017-01-23T03:21:07.884Z,66.41
2017-01-23T03:22:08.411Z,65.61
2017-01-23T03:23:08.515Z,65.91
2017-01-23T03:24:08.036Z,66.04
2017-01-23T03:25:07.518Z,65.52
2017-01-23T03:26:08.136Z,66.07
2017-01-23T03:27:07.756Z,66.08
2017-01-23T03:28:08.340Z,65.91
2017-01-23T03:29:07.932Z,65.51
2017-01-23T03:30:07.621Z,65.20
2017-01-23T03:31:08.171Z,65.21
2017-01-23T03:32:07.705Z,64.84
2017-01-23T03:33:08.302Z,64.45
2017-01-23T03:34:07.823Z,64.82
2017-01-23T03:35:08.436Z,65.33
2017-01-23T03:36:07.932Z,66.53
2017-01-23T03:37:07.496Z,66.38
2017-01-23T03:38:08.146Z,66.20
2017-01-23T03:39:08.006Z,66.50
2017-01-23T03:40:07.929Z,66.98
2017-01-23T03:41:07.594Z,67.18
2017-01-23T03:42:08.235Z,67.07
2017-01-23T03:43:07.775Z,66.13
2017-01-23T03:44:08.395Z,67.23
2017-01-23T03:45:07.841Z,66.48
2017-01-23T03:46:08.421Z,65.36
2017-01-23T03:47:08.016Z,65.24
2017-01-23T03:48:07.446Z,64.50
2017-01-23T03:49:07.940Z,65.33
2017-01-23T03:50:27.338Z,65.20
2017-01-23T03:51:08.150Z,65.73
2017-01-23T03:52:07.898Z,65.61
2017-01-23T03:53:08.502Z,65.61
2017-01-23T03:54:08.308Z,65.59
2017-01-23T03:55:07.978Z,65.67
2017-01-23T03:56:07.425Z,65.96
2017-01-23T03:57:08.029Z,66.53
2017-01-23T03:58:07.507Z,66.28
2017-01-23T03:59:08.106Z,66.07
2017-01-23T04:00:07.758Z,66.46
2017-01-23T04:01:08.329Z,66.58
2017-01-23T04:02:07.958Z,66.70
2017-01-23T04:03:07.660Z,66.49
2017-01-23T04:04:08.222Z,67.17
2017-01-23T04:05:07.828Z,66.47
2017-01-23T04:06:08.378Z,66.17
2017-01-23T04:07:07.996Z,66.67
2017-01-23T04:08:07.544Z,67.11
2017-01-23T04:09:08.253Z,66.51
2017-01-23T04:10:07.849Z,66.38
2017-01-23T04:11:07.997Z,66.25
2017-01-23T04:12:07.801Z,66.51
2017-01-23T04:13:08.381Z,66.98
2017-01-23T04:14:07.945Z,66.09
2017-01-23T04:15:07.650Z,66.67
2017-01-23T04:16:08.211Z,67.22
2017-01-23T04:17:07.917Z,67.09
2017-01-23T04:18:08.605Z,66.66
2017-01-23T04:19:08.146Z,65.96
2017-01-23T04:20:07.696Z,65.50
2017-01-23T04:21:08.277Z,65.48
2017-01-23T04:22:08.119Z,65.00
2017-01-23T04:23:17.287Z,64.51
2017-01-23T04:24:07.837Z,65.52
2017-01-23T04:25:08.447Z,66.15
2017-01-23T04:26:08.109Z,66.69
2017-01-23T04:27:07.611Z,66.77
2017-01-23T04:28:08.159Z,65.71
2017-01-23T04:29:07.701Z,65.50
2017-01-23T04:30:08.235Z,64.74
2017-01-23T04:31:07.780Z,65.42
2017-01-23T04:32:08.316Z,65.42
2017-01-23T04:33:07.846Z,65.93
2017-01-23T04:34:08.408Z,65.51
2017-01-23T04:35:07.915Z,64.25
2017-01-23T04:36:08.506Z,65.08
2017-01-23T04:37:08.266Z,65.94
2017-01-23T04:38:07.847Z,65.31
2017-01-23T04:39:08.446Z,65.64
2017-01-23T04:40:07.952Z,65.22
2017-01-23T04:41:07.459Z,65.10
2017-01-23T04:42:07.989Z,64.70
2017-01-23T04:43:07.538Z,63.61
2017-01-23T04:44:08.130Z,63.78
2017-01-23T04:45:07.867Z,64.42
2017-01-23T04:46:08.488Z,64.66
2017-01-23T04:47:08.185Z,64.67
2017-01-23T04:48:07.788Z,63.71
2017-01-23T04:49:08.331Z,63.66
2017-01-23T04:50:07.914Z,64.17
2017-01-23T04:51:08.531Z,64.57
2017-01-23T04:52:08.118Z,64.92
2017-01-23T04:53:07.602Z,64.86
2017-01-23T04:54:08.169Z,64.95
2017-01-23T04:55:07.674Z,65.40
2017-01-23T04:56:08.277Z,64.47
2017-01-23T04:57:08.126Z,65.68
2017-01-23T04:58:07.668Z,66.04
2017-01-23T04:59:08.241Z,64.97
2017-01-23T05:00:08.034Z,64.47
2017-01-23T05:01:07.531Z,64.62
2017-01-23T05:02:08.152Z,63.57
2017-01-23T05:03:07.768Z,63.71
2017-01-23T05:04:08.248Z,64.03
2017-01-23T05:05:07.926Z,64.89
2017-01-23T05:06:08.651Z,64.22
2017-01-23T05:07:08.131Z,64.14
2017-01-23T05:08:08.481Z,63.93
2017-01-23T05:09:08.096Z,63.87
2017-01-23T05:10:07.673Z,64.54
2017-01-23T05:11:08.249Z,64.44
2017-01-23T05:12:07.896Z,64.96
2017-01-23T05:13:08.431Z,65.29
2017-01-23T05:14:49.704Z,65.03
2017-01-23T05:15:08.367Z,65.70
2017-01-23T05:16:08.073Z,64.86
2017-01-23T05:17:07.810Z,65.03
2017-01-23T05:18:07.500Z,65.02
2017-01-23T05:19:08.023Z,64.43
2017-01-23T05:20:07.873Z,63.63
2017-01-23T05:21:08.532Z,64.40
2017-01-23T05:22:08.385Z,64.53
2017-01-23T05:23:07.950Z,64.11
2017-01-23T05:24:07.571Z,64.48
2017-01-23T05:25:11.077Z,65.30
2017-01-23T05:26:07.845Z,65.30
2017-01-23T05:27:08.516Z,64.50
2017-01-23T05:28:08.330Z,64.08
2017-01-23T05:29:08.057Z,64.26
2017-01-23T05:30:07.542Z,64.94
2017-01-23T05:31:08.143Z,65.59
2017-01-23T05:32:07.719Z,65.39
2017-01-23T05:33:09.382Z,65.55
2017-01-23T05:34:08.069Z,65.87
2017-01-23T05:35:07.587Z,66.29
2017-01-23T05:36:08.318Z,65.76
2017-01-23T05:37:07.793Z,65.69
2017-01-23T05:38:08.342Z,65.69
2017-01-23T05:39:07.961Z,65.93
2017-01-23T05:40:07.841Z,65.75
2017-01-23T05:41:08.533Z,65.33
2017-01-23T05:42:08.096Z,65.68
2017-01-23T05:43:07.820Z,65.46
2017-01-23T05:44:08.415Z,64.66
2017-01-23T05:45:07.978Z,64.88
2017-01-23T05:46:07.481Z,64.67
2017-01-23T05:47:08.097Z,64.28
2017-01-23T05:48:07.758Z,64.46
2017-01-23T05:49:07.719Z,64.73
2017-01-23T05:50:08.232Z,64.48
2017-01-23T05:51:07.988Z,64.80
2017-01-23T05:52:07.701Z,64.87
2017-01-23T05:53:08.270Z,64.08
2017-01-23T05:54:07.860Z,64.89
2017-01-23T05:55:08.398Z,65.37
2017-01-23T05:56:07.848Z,64.88
2017-01-23T05:57:08.623Z,65.20
2017-01-23T05:58:08.238Z,65.33
2017-01-23T05:59:07.779Z,64.13
2017-01-23T06:00:08.365Z,64.12
2017-01-23T06:01:07.880Z,64.54
2017-01-23T06:02:09.115Z,64.71
2017-01-23T06:03:07.660Z,64.17
2017-01-23T06:04:08.229Z,64.57
2017-01-23T06:05:07.949Z,64.96
2017-01-23T06:06:07.549Z,64.00
2017-01-23T06:07:08.436Z,64.23
2017-01-23T06:08:07.945Z,64.69
2017-01-23T06:09:07.495Z,64.85
2017-01-23T06:10:08.017Z,64.33
2017-01-23T06:11:07.835Z,64.37
2017-01-23T06:12:08.383Z,64.19
2017-01-23T06:13:07.907Z,63.62
2017-01-23T06:14:08.436Z,64.00
2017-01-23T06:15:08.027Z,64.12
2017-01-23T06:16:07.840Z,64.20
2017-01-23T06:17:08.477Z,64.40
2017-01-23T06:18:07.971Z,65.04
2017-01-23T06:19:07.495Z,65.15
2017-01-23T06:20:08.280Z,64.73
2017-01-23T06:21:07.832Z,65.39
2017-01-23T06:22:08.386Z,65.51
2017-01-23T06:23:08.010Z,65.34
2017-01-23T06:24:07.684Z,65.50
2017-01-23T06:25:08.288Z,65.52
2017-01-23T06:26:07.989Z,65.63
2017-01-23T06:27:07.557Z,65.99
2017-01-23T06:28:08.080Z,65.33
2017-01-23T06:29:07.612Z,63.73
2017-01-23T06:30:08.341Z,64.43
2017-01-23T06:31:07.835Z,64.61
2017-01-23T06:32:08.464Z,65.02
2017-01-23T06:33:07.946Z,65.38
2017-01-23T06:34:07.463Z,63.32
2017-01-23T06:35:08.065Z,63.51
2017-01-23T06:36:07.588Z,63.68
2017-01-23T06:37:08.290Z,63.67
2017-01-23T06:38:07.784Z,64.36
2017-01-23T06:39:08.397Z,64.37
2017-01-23T06:40:08.001Z,64.47
2017-01-23T06:41:07.482Z,64.41
2017-01-23T06:42:07.968Z,64.39
2017-01-23T06:43:07.695Z,64.75
2017-01-23T06:44:08.383Z,64.36
2017-01-23T06:45:07.925Z,64.30
2017-01-23T06:46:07.663Z,64.39
2017-01-23T06:47:08.290Z,64.18
2017-01-23T06:48:07.785Z,65.00
2017-01-23T06:49:08.391Z,64.08
2017-01-23T06:50:08.080Z,64.18
2017-01-23T06:51:07.609Z,64.19
2017-01-23T06:52:08.221Z,63.38
2017-01-23T06:53:08.153Z,64.36
2017-01-23T06:54:07.915Z,64.85
2017-01-23T06:55:08.463Z,64.50
2017-01-23T06:56:08.061Z,64.83
2017-01-23T06:57:07.843Z,65.07
2017-01-23T06:58:08.661Z,65.43
2017-01-23T06:59:08.269Z,64.43
2017-01-23T07:00:07.752Z,64.33
2017-01-23T07:01:08.336Z,65.73
2017-01-23T07:02:07.831Z,65.26
2017-01-23T07:03:32.064Z,64.72
2017-01-23T07:04:07.701Z,64.21
2017-01-23T07:05:08.480Z,64.49
2017-01-23T07:06:08.077Z,64.30
2017-01-23T07:07:07.780Z,64.75
2017-01-23T07:08:08.427Z,64.10
2017-01-23T07:09:08.136Z,63.90
2017-01-23T07:10:07.650Z,63.73
2017-01-23T07:11:08.234Z,64.09
2017-01-23T07:12:07.793Z,64.96
2017-01-23T07:13:08.388Z,64.75
2017-01-23T07:15:07.439Z,65.07
2017-01-23T07:15:11.126Z,64.91
2017-01-23T07:16:07.752Z,65.76
2017-01-23T07:17:08.407Z,66.30
2017-01-23T07:18:17.872Z,66.50
2017-01-23T07:19:08.472Z,66.14
2017-01-23T07:20:07.994Z,65.74
2017-01-23T07:21:07.452Z,65.22
2017-01-23T07:22:08.082Z,65.01
2017-01-23T07:23:07.588Z,65.36
2017-01-23T07:24:08.159Z,65.10
2017-01-23T07:25:07.743Z,65.15
2017-01-23T07:26:08.226Z,65.01
2017-01-23T07:27:07.769Z,64.42
2017-01-23T07:28:08.347Z,64.86
2017-01-23T07:29:07.857Z,65.03
2017-01-23T07:30:08.424Z,65.25
2017-01-23T07:31:08.017Z,64.93
2017-01-23T07:32:07.555Z,64.98
2017-01-23T07:33:08.124Z,65.65
2017-01-23T07:34:07.592Z,66.26
2017-01-23T07:35:08.199Z,65.38
2017-01-23T07:36:07.696Z,65.56
2017-01-23T07:37:08.290Z,65.41
2017-01-23T07:38:07.979Z,65.21
2017-01-23T07:39:07.834Z,64.82
2017-01-23T07:40:08.393Z,65.02
2017-01-23T07:41:07.890Z,65.09
2017-01-23T07:42:08.549Z,65.26
2017-01-23T07:43:08.041Z,65.41
2017-01-23T07:44:07.583Z,65.20
2017-01-23T07:45:08.115Z,65.47
2017-01-23T07:46:08.332Z,65.66
2017-01-23T07:47:09.047Z,65.96
2017-01-23T07:48:07.710Z,66.94
2017-01-23T07:49:08.266Z,67.23
2017-01-23T07:50:07.819Z,67.08
2017-01-23T07:51:08.311Z,66.96
2017-01-23T07:52:07.861Z,66.82
2017-01-23T07:53:08.417Z,66.84
2017-01-23T07:54:07.975Z,66.55
2017-01-23T07:55:07.469Z,67.68
2017-01-23T07:56:08.030Z,67.13
2017-01-23T07:57:07.708Z,66.83
2017-01-23T07:58:09.156Z,66.74
2017-01-23T07:59:07.710Z,67.08
2017-01-23T08:00:08.488Z,66.94
2017-01-23T08:01:08.048Z,66.73
2017-01-23T08:02:07.728Z,67.04
2017-01-23T08:03:08.280Z,67.89
2017-01-23T08:04:07.804Z,68.33
2017-01-23T08:05:08.315Z,68.62
2017-01-23T08:06:07.950Z,68.15
2017-01-23T08:07:07.645Z,68.54
2017-01-23T08:08:08.307Z,68.13
2017-01-23T08:09:08.349Z,68.03
2017-01-23T08:10:08.033Z,67.71
2017-01-23T08:11:07.884Z,67.64
2017-01-23T08:12:08.462Z,68.48
2017-01-23T08:13:07.959Z,68.15
2017-01-23T08:14:07.479Z,68.14
2017-01-23T08:15:08.065Z,67.82
2017-01-23T08:16:07.661Z,67.77
2017-01-23T08:17:08.417Z,67.42
2017-01-23T08:18:08.160Z,67.33
2017-01-23T08:19:07.938Z,69.11
2017-01-23T08:20:07.601Z,69.54
2017-01-23T08:21:08.188Z,68.89
2017-01-23T08:22:07.759Z,68.20
2017-01-23T08:23:08.287Z,68.64
2017-01-23T08:24:07.871Z,68.40
2017-01-23T08:25:08.442Z,67.64
2017-01-23T08:26:07.906Z,68.26
2017-01-23T08:27:08.523Z,68.22
2017-01-23T08:28:08.122Z,67.97
2017-01-23T08:29:07.699Z,69.01
2017-01-23T08:30:08.322Z,70.83
2017-01-23T08:31:08.121Z,71.09
2017-01-23T08:32:07.647Z,72.75
2017-01-23T08:33:08.182Z,71.94
2017-01-23T08:34:07.700Z,70.68
2017-01-23T08:35:08.225Z,71.23
2017-01-23T08:36:07.788Z,71.32
2017-01-23T08:37:08.342Z,70.66
2017-01-23T08:38:07.886Z,69.98
2017-01-23T08:39:08.548Z,69.69
2017-01-23T08:40:08.141Z,69.43
2017-01-23T08:41:07.944Z,68.98
2017-01-23T08:42:08.506Z,68.77
2017-01-23T08:43:08.411Z,68.75
2017-01-23T08:44:08.009Z,68.49
2017-01-23T08:45:07.545Z,68.52
2017-01-23T08:46:08.104Z,68.27
2017-01-23T08:47:07.661Z,69.47
2017-01-23T08:48:08.170Z,69.30
2017-01-23T08:49:07.670Z,69.94
2017-01-23T08:50:07.864Z,70.24
2017-01-23T08:51:08.404Z,70.62
2017-01-23T08:52:08.114Z,69.56
2017-01-23T08:53:07.550Z,69.45
2017-01-23T08:54:08.145Z,69.10
2017-01-23T08:55:07.596Z,69.63
2017-01-23T08:56:08.374Z,70.18
2017-01-23T08:57:07.936Z,70.00
2017-01-23T08:58:07.439Z,70.10
2017-01-23T08:59:07.945Z,69.83
2017-01-23T09:00:07.455Z,69.64
2017-01-23T09:01:07.965Z,69.71
2017-01-23T09:02:08.823Z,69.52
2017-01-23T09:03:08.365Z,68.68
2017-01-23T09:04:07.939Z,68.17
2017-01-23T09:05:07.532Z,68.76
2017-01-23T09:06:08.122Z,69.16
2017-01-23T09:07:07.796Z,69.36
2017-01-23T09:08:08.333Z,68.99
2017-01-23T09:09:07.990Z,68.49
2017-01-23T09:10:07.545Z,69.18
2017-01-23T09:12:08.104Z,68.88
2017-01-23T09:13:07.692Z,69.48
2017-01-23T09:14:08.280Z,69.08
2017-01-23T09:15:08.181Z,68.50
2017-01-23T09:16:07.758Z,68.70
2017-01-23T09:17:08.478Z,68.48
2017-01-23T09:18:08.054Z,68.94
2017-01-23T09:19:07.550Z,69.06
2017-01-23T09:20:08.131Z,69.42
2017-01-23T09:21:07.732Z,70.06
2017-01-23T09:22:08.409Z,70.27
2017-01-23T09:23:07.899Z,70.15
2017-01-23T09:24:28.003Z,69.95
2017-01-23T09:25:07.686Z,69.78
2017-01-23T09:26:08.232Z,70.19
2017-01-23T09:27:07.750Z,70.11
2017-01-23T09:28:08.273Z,69.92
2017-01-23T09:29:07.830Z,69.82
2017-01-23T09:30:08.438Z,69.89
2017-01-23T09:31:08.079Z,69.08
2017-01-23T09:32:07.667Z,70.46
2017-01-23T09:33:08.198Z,70.59
2017-01-23T09:34:07.776Z,70.42
2017-01-23T09:35:08.353Z,70.60
2017-01-23T09:36:07.900Z,70.35
2017-01-23T09:37:08.417Z,70.47
2017-01-23T09:38:07.989Z,70.59
2017-01-23T09:39:07.578Z,70.50
2017-01-23T09:40:08.192Z,70.66
2017-01-23T09:41:07.768Z,70.65
2017-01-23T09:42:08.370Z,70.31
2017-01-23T09:43:07.987Z,70.12
2017-01-23T09:44:07.440Z,70.42
2017-01-23T09:45:07.994Z,71.01
2017-01-23T09:46:07.546Z,70.51
2017-01-23T09:47:08.018Z,71.25
2017-01-23T09:48:07.808Z,70.45
2017-01-23T09:49:09.462Z,70.22
2017-01-23T09:50:08.240Z,70.67
2017-01-23T09:51:07.770Z,69.73
2017-01-23T09:52:08.334Z,70.75
2017-01-23T09:53:07.902Z,70.89
2017-01-23T09:54:08.479Z,70.50
2017-01-23T09:55:07.972Z,70.01
2017-01-23T09:56:07.742Z,69.65
2017-01-23T09:57:08.251Z,69.96
2017-01-23T09:58:07.678Z,70.33
2017-01-23T09:59:07.838Z,70.29
2017-01-23T10:00:08.402Z,70.46
2017-01-23T10:01:08.208Z,70.41
2017-01-23T10:02:07.698Z,70.08
2017-01-23T10:03:08.305Z,70.20
2017-01-23T10:04:07.923Z,71.10
2017-01-23T10:05:08.494Z,70.84
2017-01-23T10:06:08.056Z,70.86
2017-01-23T10:07:22.074Z,70.65
2017-01-23T10:08:07.669Z,70.70
2017-01-23T10:09:08.367Z,70.56
2017-01-23T10:10:07.965Z,70.80
2017-01-23T10:11:07.560Z,71.16
2017-01-23T10:12:08.155Z,71.32
2017-01-23T10:13:07.653Z,70.80
2017-01-23T10:14:08.103Z,70.70
2017-01-23T10:15:07.613Z,71.10
2017-01-23T10:16:08.333Z,70.75
2017-01-23T10:17:08.201Z,70.44
2017-01-23T10:18:07.635Z,70.00
2017-01-23T10:19:08.144Z,71.06
2017-01-23T10:20:07.732Z,70.90
2017-01-23T10:21:08.291Z,70.85
2017-01-23T10:22:07.744Z,71.10
2017-01-23T10:23:08.235Z,71.15
2017-01-23T10:24:07.788Z,71.27
2017-01-23T10:25:08.386Z,71.79
2017-01-23T10:26:08.023Z,71.28
2017-01-23T10:27:07.534Z,71.42
2017-01-23T10:28:08.306Z,71.55
2017-01-23T10:29:07.889Z,71.33
2017-01-23T10:30:08.496Z,70.13
2017-01-23T10:31:08.074Z,70.54
2017-01-23T10:32:07.993Z,70.47
2017-01-23T10:33:07.441Z,70.64
2017-01-23T10:34:07.916Z,71.18
2017-01-23T10:35:08.394Z,71.41
2017-01-23T10:36:08.016Z,71.20
2017-01-23T10:37:07.574Z,71.30
2017-01-23T10:38:08.072Z,71.16
2017-01-23T10:39:07.682Z,71.08
2017-01-23T10:40:08.190Z,70.69
2017-01-23T10:41:07.722Z,71.18
2017-01-23T10:42:08.253Z,71.05
2017-01-23T10:43:07.834Z,71.50
2017-01-23T10:45:08.296Z,70.66
2017-01-23T10:46:07.842Z,69.99
2017-01-23T10:47:08.482Z,70.96
2017-01-23T10:48:08.061Z,70.88
2017-01-23T10:49:07.606Z,70.50
2017-01-23T10:50:08.209Z,70.51
2017-01-23T10:51:07.814Z,69.89
2017-01-23T10:52:08.584Z,70.13
2017-01-23T10:53:08.095Z,70.13
2017-01-23T10:54:07.706Z,69.83
2017-01-23T10:55:08.323Z,69.73
2017-01-23T10:56:07.894Z,69.76
2017-01-23T10:57:08.421Z,69.19
2017-01-23T10:58:07.947Z,69.55
2017-01-23T10:59:07.708Z,69.11
2017-01-23T11:00:08.306Z,69.49
2017-01-23T11:01:07.845Z,69.56
2017-01-23T11:02:08.435Z,69.86
2017-01-23T11:03:07.988Z,69.86
2017-01-23T11:04:07.926Z,69.40
2017-01-23T11:05:08.503Z,68.93
2017-01-23T11:06:08.147Z,69.22
2017-01-23T11:07:07.593Z,68.88
2017-01-23T11:08:08.065Z,68.81
2017-01-23T11:09:07.802Z,69.14
2017-01-23T11:10:08.384Z,68.65
2017-01-23T11:11:07.914Z,68.57
2017-01-23T11:12:08.513Z,68.81
2017-01-23T11:13:08.365Z,68.82
2017-01-23T11:14:09.070Z,68.76
2017-01-23T11:15:07.605Z,68.99
2017-01-23T11:16:08.233Z,68.75
2017-01-23T11:17:07.972Z,68.73
2017-01-23T11:18:07.571Z,68.25
2017-01-23T11:19:08.258Z,67.90
2017-01-23T11:20:07.787Z,67.45
2017-01-23T11:21:08.269Z,67.14
2017-01-23T11:22:07.916Z,66.46
2017-01-23T11:23:08.363Z,65.98
2017-01-23T11:24:08.300Z,65.55
2017-01-23T11:25:07.791Z,64.76
2017-01-23T11:26:08.577Z,64.96
2017-01-23T11:27:08.465Z,65.38
2017-01-23T11:28:07.900Z,65.68
2017-01-23T11:29:08.475Z,66.17
2017-01-23T11:30:08.086Z,66.29
2017-01-23T11:31:07.805Z,65.99
2017-01-23T11:32:08.412Z,67.21
2017-01-23T11:33:07.871Z,66.07
2017-01-23T11:34:08.462Z,65.59
2017-01-23T11:35:08.113Z,65.68
2017-01-23T11:36:07.903Z,65.94
2017-01-23T11:37:09.002Z,65.76
2017-01-23T11:38:07.574Z,65.63
2017-01-23T11:39:08.273Z,65.79
2017-01-23T11:40:07.870Z,65.31
2017-01-23T11:41:08.460Z,65.44
2017-01-23T11:42:08.070Z,65.35
2017-01-23T11:43:07.601Z,64.47
2017-01-23T11:44:08.197Z,64.81
2017-01-23T11:45:07.779Z,64.84
2017-01-23T11:46:08.325Z,65.12
2017-01-23T11:47:08.054Z,65.44
2017-01-23T11:48:07.568Z,65.27
2017-01-23T11:49:08.481Z,65.28
2017-01-23T11:50:08.025Z,65.74
2017-01-23T11:51:07.587Z,65.42
2017-01-23T11:52:08.194Z,65.92
2017-01-23T11:53:07.769Z,65.75
2017-01-23T11:54:08.404Z,65.84
2017-01-23T11:55:08.050Z,66.02
2017-01-23T11:56:07.774Z,65.74
2017-01-23T11:57:08.370Z,65.77
2017-01-23T11:58:07.917Z,65.42
2017-01-23T11:59:08.467Z,65.12
2017-01-23T12:00:08.024Z,65.25
2017-01-23T12:01:07.537Z,65.51
2017-01-23T12:02:08.057Z,65.41
2017-01-23T12:03:07.533Z,65.46
2017-01-23T12:04:08.026Z,66.17
2017-01-23T12:05:07.822Z,65.61
2017-01-23T12:06:08.366Z,65.70
2017-01-23T12:07:07.912Z,65.57
2017-01-23T12:08:08.584Z,65.56
2017-01-23T12:09:08.184Z,65.45
2017-01-23T12:10:07.695Z,65.63
2017-01-23T12:11:08.234Z,65.54
2017-01-23T12:12:07.763Z,64.87
2017-01-23T12:13:08.281Z,65.34
2017-01-23T12:14:07.814Z,65.07
2017-01-23T12:15:08.334Z,65.32
2017-01-23T12:16:08.145Z,65.54
2017-01-23T12:17:07.811Z,65.75
2017-01-23T12:18:08.418Z,66.00
2017-01-23T12:19:08.080Z,65.77
2017-01-23T12:20:07.530Z,65.98
2017-01-23T12:21:07.887Z,65.85
2017-01-23T12:22:08.454Z,65.64
2017-01-23T12:23:07.890Z,65.24
2017-01-23T12:24:08.403Z,65.01
2017-01-23T12:25:07.984Z,65.29
2017-01-23T12:26:07.754Z,65.13
2017-01-23T12:27:08.331Z,64.79
2017-01-23T12:28:07.847Z,64.81
2017-01-23T12:29:08.362Z,65.26
2017-01-23T12:30:07.952Z,65.29
2017-01-23T12:31:07.489Z,65.33
2017-01-23T12:32:08.003Z,65.33
2017-01-23T12:33:07.625Z,65.61
2017-01-23T12:34:08.153Z,65.64
2017-01-23T12:35:07.734Z,65.48
2017-01-23T12:36:08.345Z,65.60
2017-01-23T12:37:07.925Z,65.84
2017-01-23T12:38:08.550Z,65.53
2017-01-23T12:39:08.316Z,65.57
2017-01-23T12:40:08.041Z,65.84
2017-01-23T12:41:07.610Z,65.57
2017-01-23T12:42:08.171Z,65.52
2017-01-23T12:43:07.777Z,65.48
2017-01-23T12:44:08.410Z,65.82
2017-01-23T12:45:08.013Z,65.55
2017-01-23T12:46:07.580Z,65.52
2017-01-23T12:47:08.198Z,65.30
2017-01-23T12:48:07.761Z,64.82
2017-01-23T12:49:08.322Z,65.31
2017-01-23T12:50:33.479Z,65.69
2017-01-23T12:51:08.059Z,65.87
2017-01-23T12:52:07.565Z,65.71
2017-01-23T12:53:08.361Z,65.40
2017-01-23T12:54:08.100Z,65.43